createdAt,value
2022-11-17T00:00:37.224Z,90.48
2022-11-17T00:03:05.427Z,90.36
2022-11-17T00:05:38.156Z,90.80
2022-11-17T00:08:06.446Z,91.13
2022-11-17T00:10:35.560Z,91.45
2022-11-17T00:13:20.979Z,91.34
2022-11-17T00:15:49.124Z,91.83
2022-11-17T00:18:34.548Z,91.76
2022-11-17T00:21:21.786Z,91.51
2022-11-17T00:23:50.699Z,91.47
2022-11-17T00:26:21.004Z,91.51
2022-11-17T00:28:49.450Z,91.12
2022-11-17T00:31:34.846Z,91.61
2022-11-17T00:34:05.926Z,91.58
2022-11-17T00:36:37.700Z,92.10
2022-11-17T00:39:06.479Z,92.02
2022-11-17T00:41:34.859Z,91.92
2022-11-17T00:44:03.151Z,92.14
2022-11-17T00:46:31.569Z,92.34
2022-11-17T00:48:59.998Z,91.94
2022-11-17T00:51:28.329Z,91.98
2022-11-17T00:53:58.310Z,91.97
2022-11-17T00:56:26.734Z,92.05
2022-11-17T00:58:55.513Z,92.10
2022-11-17T01:01:24.831Z,92.37
2022-11-17T01:04:03.007Z,92.02
2022-11-17T01:06:33.843Z,91.84
2022-11-17T01:09:05.653Z,92.08
2022-11-17T01:11:34.239Z,91.60
2022-11-17T01:14:03.091Z,91.11
2022-11-17T01:16:32.126Z,91.22
2022-11-17T01:19:02.105Z,90.63
2022-11-17T01:21:31.833Z,90.04
2022-11-17T01:24:01.914Z,89.69
2022-11-17T01:26:33.917Z,89.32
2022-11-17T01:29:03.157Z,89.06
2022-11-17T01:31:33.991Z,88.85
2022-11-17T01:34:02.751Z,89.50
2022-11-17T01:36:52.401Z,89.66
2022-11-17T01:39:20.783Z,89.26
2022-11-17T01:41:50.331Z,89.09
2022-11-17T01:44:53.882Z,88.99
2022-11-17T01:47:27.099Z,89.76
2022-11-17T01:49:57.942Z,89.30
2022-11-17T01:52:29.254Z,89.12
2022-11-17T01:55:00.286Z,89.49
2022-11-17T01:57:34.370Z,88.73
2022-11-17T02:00:05.677Z,88.98
2022-11-17T02:02:35.094Z,89.41
2022-11-17T02:05:13.632Z,89.10
2022-11-17T02:07:44.331Z,89.03
2022-11-17T02:10:12.719Z,88.77
2022-11-17T02:12:42.939Z,88.50
2022-11-17T02:15:11.671Z,88.77
2022-11-17T02:17:41.998Z,89.08
2022-11-17T02:20:13.596Z,88.23
2022-11-17T02:23:07.940Z,87.97
2022-11-17T02:25:58.820Z,87.71
2022-11-17T02:28:31.221Z,87.55
2022-11-17T02:31:11.156Z,87.83
2022-11-17T02:33:54.090Z,87.85
2022-11-17T02:36:30.736Z,88.19
2022-11-17T02:39:07.089Z,88.11
2022-11-17T02:41:45.117Z,87.77
2022-11-17T02:44:22.021Z,87.47
2022-11-17T02:46:56.027Z,88.18
2022-11-17T02:49:28.165Z,88.85
2022-11-17T02:51:58.741Z,90.59
2022-11-17T02:54:30.637Z,91.32
2022-11-17T02:56:59.124Z,91.47
2022-11-17T02:59:35.596Z,90.85
2022-11-17T03:02:28.517Z,90.76
2022-11-17T03:05:08.156Z,89.93
2022-11-17T03:07:50.268Z,89.94
2022-11-17T03:10:22.033Z,88.97
2022-11-17T03:12:56.511Z,88.50
2022-11-17T03:15:33.819Z,88.10
2022-11-17T03:18:08.965Z,88.05
2022-11-17T03:20:43.722Z,88.10
2022-11-17T03:23:15.512Z,87.93
2022-11-17T03:25:51.503Z,88.09
2022-11-17T03:28:22.910Z,88.64
2022-11-17T03:30:55.036Z,88.47
2022-11-17T03:33:25.469Z,88.96
2022-11-17T03:35:59.926Z,89.07
2022-11-17T03:38:33.506Z,89.07
2022-11-17T03:41:04.264Z,89.07
2022-11-17T03:43:33.404Z,89.02
2022-11-17T03:46:07.132Z,89.47
2022-11-17T03:48:37.415Z,89.07
2022-11-17T03:51:09.319Z,88.93
2022-11-17T03:53:38.248Z,88.88
2022-11-17T03:56:16.339Z,88.77
2022-11-17T03:58:54.574Z,89.53
2022-11-17T04:01:24.301Z,90.47
2022-11-17T04:03:53.441Z,89.99
2022-11-17T04:06:21.609Z,90.29
2022-11-17T04:08:49.835Z,90.59
2022-11-17T04:11:35.186Z,90.66
2022-11-17T04:14:20.889Z,91.16
2022-11-17T04:16:50.363Z,90.90
2022-11-17T04:19:18.443Z,90.84
2022-11-17T04:21:46.547Z,90.64
2022-11-17T04:24:14.652Z,90.75
2022-11-17T04:27:00.095Z,89.99
2022-11-17T04:29:28.721Z,89.40
2022-11-17T04:31:58.339Z,89.05
2022-11-17T04:34:26.584Z,89.63
2022-11-17T04:36:54.666Z,89.81
2022-11-17T04:39:22.722Z,89.48
2022-11-17T04:41:57.584Z,88.78
2022-11-17T04:44:27.527Z,88.77
2022-11-17T04:46:58.268Z,88.99
2022-11-17T04:49:27.787Z,88.36
2022-11-17T04:51:56.021Z,88.45
2022-11-17T04:54:25.791Z,89.33
2022-11-17T04:56:54.731Z,88.68
2022-11-17T04:59:23.166Z,88.93
2022-11-17T05:01:51.630Z,88.80
2022-11-17T05:04:36.163Z,88.85
2022-11-17T05:07:04.682Z,89.03
2022-11-17T05:09:33.023Z,89.43
2022-11-17T05:12:18.445Z,89.41
2022-11-17T05:14:47.797Z,89.46
2022-11-17T05:17:14.907Z,89.44
2022-11-17T05:19:45.579Z,89.07
2022-11-17T05:22:33.662Z,89.37
2022-11-17T05:25:01.997Z,89.73
2022-11-17T05:27:30.467Z,90.03
2022-11-17T05:29:58.628Z,89.91
2022-11-17T05:32:26.699Z,89.33
2022-11-17T05:34:56.133Z,89.92
2022-11-17T05:37:24.343Z,89.87
2022-11-17T05:39:52.396Z,89.57
2022-11-17T05:42:20.440Z,90.93
2022-11-17T05:44:49.097Z,89.34
2022-11-17T05:47:17.240Z,92.32
2022-11-17T05:49:45.307Z,92.49
2022-11-17T05:52:14.777Z,92.62
2022-11-17T05:54:42.890Z,92.41
2022-11-17T05:57:14.449Z,92.24
2022-11-17T05:59:47.865Z,92.33
2022-11-17T06:02:21.154Z,92.05
2022-11-17T06:04:51.296Z,91.78
2022-11-17T06:07:21.314Z,91.11
2022-11-17T06:09:52.308Z,90.62
2022-11-17T06:12:20.354Z,90.44
2022-11-17T06:14:49.513Z,91.10
2022-11-17T06:17:22.747Z,91.16
2022-11-17T06:19:56.406Z,90.70
2022-11-17T06:22:26.728Z,90.05
2022-11-17T06:24:55.694Z,90.15
2022-11-17T06:27:25.616Z,90.05
2022-11-17T06:29:55.185Z,89.85
2022-11-17T06:32:23.595Z,89.46
2022-11-17T06:34:56.180Z,89.47
2022-11-17T06:37:26.328Z,89.71
2022-11-17T06:39:54.736Z,89.70
2022-11-17T06:42:44.027Z,89.96
2022-11-17T06:45:13.213Z,89.82
2022-11-17T06:47:41.303Z,89.94
2022-11-17T06:50:10.236Z,89.96
2022-11-17T06:52:40.187Z,89.61
2022-11-17T06:55:09.577Z,88.89
2022-11-17T06:57:37.688Z,89.30
2022-11-17T07:00:07.365Z,89.86
2022-11-17T07:02:36.767Z,91.06
2022-11-17T07:05:05.196Z,91.47
2022-11-17T07:07:33.593Z,91.70
2022-11-17T07:10:03.270Z,91.99
2022-11-17T07:12:31.368Z,91.27
2022-11-17T07:14:59.589Z,91.52
2022-11-17T07:17:29.153Z,91.49
2022-11-17T07:19:57.281Z,91.37
2022-11-17T07:22:25.360Z,90.65
2022-11-17T07:24:53.535Z,90.51
2022-11-17T07:27:23.023Z,89.06
2022-11-17T07:29:53.917Z,87.80
2022-11-17T07:32:22.224Z,86.83
2022-11-17T07:34:50.345Z,86.66
2022-11-17T07:37:19.543Z,86.43
2022-11-17T07:39:47.633Z,86.71
2022-11-17T07:42:15.716Z,86.41
2022-11-17T07:44:45.196Z,86.96
2022-11-17T07:47:13.431Z,86.07
2022-11-17T07:49:41.527Z,84.49
2022-11-17T07:52:09.633Z,82.65
2022-11-17T07:54:37.729Z,81.89
2022-11-17T07:57:05.892Z,82.13
2022-11-17T07:59:34.426Z,82.67
2022-11-17T08:02:04.002Z,80.09
2022-11-17T08:04:32.105Z,78.37
2022-11-17T08:07:00.324Z,78.06
2022-11-17T08:09:28.433Z,77.59
2022-11-17T08:11:57.658Z,77.19
2022-11-17T08:14:25.744Z,76.87
2022-11-17T08:16:53.889Z,76.75
2022-11-17T08:19:23.344Z,75.55
2022-11-17T08:21:51.773Z,74.98
2022-11-17T08:24:19.872Z,73.94
2022-11-17T08:26:47.975Z,73.67
2022-11-17T08:29:16.187Z,74.41
2022-11-17T08:31:46.327Z,73.62
2022-11-17T08:34:14.771Z,73.65
2022-11-17T08:36:44.322Z,73.40
2022-11-17T08:39:12.583Z,72.36
2022-11-17T08:41:40.684Z,72.81
2022-11-17T08:44:08.866Z,70.95
2022-11-17T08:46:37.071Z,69.29
2022-11-17T08:49:05.162Z,69.37
2022-11-17T08:51:33.288Z,68.40
2022-11-17T08:54:02.882Z,67.59
2022-11-17T08:56:31.052Z,67.70
2022-11-17T08:58:59.283Z,67.48
2022-11-17T09:01:27.474Z,66.30
2022-11-17T09:03:55.621Z,66.35
2022-11-17T09:06:23.733Z,66.83
2022-11-17T09:08:55.035Z,67.42
2022-11-17T09:11:25.243Z,67.68
2022-11-17T09:13:53.310Z,67.75
2022-11-17T09:16:24.070Z,67.46
2022-11-17T09:18:57.041Z,67.41
2022-11-17T09:21:26.257Z,67.30
2022-11-17T09:23:55.361Z,66.91
2022-11-17T09:26:25.181Z,68.15
2022-11-17T09:28:53.436Z,67.71
2022-11-17T09:31:23.405Z,67.41
2022-11-17T09:33:51.635Z,68.61
2022-11-17T09:36:19.761Z,68.38
2022-11-17T09:38:48.226Z,68.12
2022-11-17T09:41:40.115Z,67.15
2022-11-17T09:44:19.519Z,66.90
2022-11-17T09:46:57.406Z,65.86
2022-11-17T09:49:36.793Z,65.54
2022-11-17T09:52:15.357Z,65.95
2022-11-17T09:54:48.529Z,66.64
2022-11-17T09:57:23.987Z,67.55
2022-11-17T10:00:05.103Z,69.15
2022-11-17T10:02:33.578Z,71.81
2022-11-17T10:05:02.005Z,73.95
2022-11-17T10:07:32.861Z,74.70
2022-11-17T10:10:04.652Z,75.50
2022-11-17T10:12:41.997Z,75.20
2022-11-17T10:15:23.293Z,75.11
2022-11-17T10:17:52.177Z,75.24
2022-11-17T10:20:20.449Z,75.49
2022-11-17T10:22:49.786Z,75.49
2022-11-17T10:25:38.847Z,75.91
2022-11-17T10:28:28.274Z,76.21
2022-11-17T10:31:00.245Z,76.70
2022-11-17T10:33:38.591Z,77.08
2022-11-17T10:36:15.585Z,78.04
2022-11-17T10:38:46.381Z,78.77
2022-11-17T10:41:19.010Z,78.69
2022-11-17T10:43:58.084Z,79.26
2022-11-17T10:46:27.204Z,79.23
2022-11-17T10:49:00.733Z,78.92
2022-11-17T10:51:29.943Z,79.87
2022-11-17T10:54:07.477Z,80.48
2022-11-17T10:56:41.714Z,79.98
2022-11-17T10:59:21.300Z,80.20
2022-11-17T11:01:52.128Z,81.29
2022-11-17T11:04:32.522Z,80.72
2022-11-17T11:07:09.699Z,81.16
2022-11-17T11:09:42.713Z,80.96
2022-11-17T11:12:16.433Z,81.14
2022-11-17T11:14:52.332Z,82.19
2022-11-17T11:17:21.093Z,81.96
2022-11-17T11:19:53.752Z,82.08
2022-11-17T11:22:38.069Z,82.31
2022-11-17T11:25:26.322Z,81.76
2022-11-17T11:28:05.971Z,82.89
2022-11-17T11:30:42.495Z,82.96
2022-11-17T11:33:34.457Z,83.73
2022-11-17T11:36:15.374Z,84.53
2022-11-17T11:38:56.277Z,84.06
2022-11-17T11:41:50.117Z,84.67
2022-11-17T11:44:31.746Z,85.61
2022-11-17T11:47:12.501Z,85.72
2022-11-17T11:49:46.999Z,84.92
2022-11-17T11:52:20.887Z,85.14
2022-11-17T11:54:55.409Z,86.76
2022-11-17T11:57:30.204Z,87.11
2022-11-17T12:00:04.420Z,87.01
2022-11-17T12:02:43.662Z,89.26
2022-11-17T12:05:22.972Z,89.28
2022-11-17T12:07:54.270Z,89.65
2022-11-17T12:10:30.087Z,89.93
2022-11-17T12:12:59.325Z,89.81
2022-11-17T12:15:39.362Z,90.13
2022-11-17T12:18:14.786Z,89.84
2022-11-17T12:20:56.429Z,89.38
2022-11-17T12:23:33.811Z,89.47
2022-11-17T12:26:03.167Z,90.19
2022-11-17T12:28:35.825Z,89.80
2022-11-17T12:31:10.185Z,88.86
2022-11-17T12:34:12.334Z,89.72
2022-11-17T12:36:42.057Z,90.06
2022-11-17T12:39:48.428Z,90.25
2022-11-17T12:42:16.542Z,90.22
2022-11-17T12:44:52.059Z,90.30
2022-11-17T12:47:22.212Z,90.89
2022-11-17T12:50:05.680Z,90.61
2022-11-17T12:52:47.177Z,90.48
2022-11-17T12:55:22.625Z,91.09
2022-11-17T12:57:59.315Z,91.31
2022-11-17T13:00:30.254Z,91.47
2022-11-17T13:03:02.967Z,91.07
2022-11-17T13:05:31.534Z,91.13
2022-11-17T13:08:22.512Z,92.31
2022-11-17T13:10:51.703Z,91.61
2022-11-17T13:13:21.698Z,92.77
2022-11-17T13:15:52.478Z,92.31
2022-11-17T13:18:31.111Z,93.21
2022-11-17T13:20:59.830Z,93.11
2022-11-17T13:23:30.589Z,91.42
2022-11-17T13:26:12.859Z,93.38
2022-11-17T13:28:40.948Z,91.43
2022-11-17T13:31:18.106Z,90.83
2022-11-17T13:33:57.050Z,90.23
2022-11-17T13:36:27.457Z,90.45
2022-11-17T13:39:00.479Z,90.94
2022-11-17T13:41:33.663Z,90.80
2022-11-17T13:44:02.446Z,90.67
2022-11-17T13:46:30.562Z,90.52
2022-11-17T13:48:58.668Z,90.09
2022-11-17T13:51:38.612Z,89.65
2022-11-17T13:54:17.921Z,89.77
2022-11-17T13:56:52.762Z,90.40
2022-11-17T13:59:26.252Z,87.66
2022-11-17T14:02:24.423Z,92.21
2022-11-17T14:05:07.858Z,93.51
2022-11-17T14:07:37.762Z,93.80
2022-11-17T14:10:29.436Z,94.45
2022-11-17T14:13:22.099Z,95.66
2022-11-17T14:15:59.462Z,96.89
2022-11-17T14:18:30.799Z,96.81
2022-11-17T14:21:11.688Z,97.46
2022-11-17T14:23:39.988Z,99.56
2022-11-17T14:26:24.389Z,98.72
2022-11-17T14:28:53.298Z,99.54
2022-11-17T14:31:21.401Z,100.00
2022-11-17T14:33:50.562Z,100.00
2022-11-17T14:36:19.244Z,100.00
2022-11-17T14:38:47.993Z,100.00
2022-11-17T14:41:19.039Z,100.00
2022-11-17T14:43:47.950Z,100.00
2022-11-17T14:46:21.202Z,100.00
2022-11-17T14:48:49.281Z,100.00
2022-11-17T14:51:17.976Z,100.00
2022-11-17T14:53:46.724Z,100.00
2022-11-17T14:56:18.970Z,100.00
2022-11-17T14:58:47.802Z,100.00
2022-11-17T15:01:18.859Z,100.00
2022-11-17T15:03:47.606Z,100.00
2022-11-17T15:06:19.891Z,100.00
2022-11-17T15:08:49.140Z,100.00
2022-11-17T15:11:19.394Z,100.00
2022-11-17T15:13:47.647Z,100.00
2022-11-17T15:16:15.811Z,100.00
2022-11-17T15:18:46.710Z,100.00
2022-11-17T15:21:16.106Z,100.00
2022-11-17T15:23:45.143Z,98.54
2022-11-17T15:26:15.680Z,97.18
2022-11-17T15:28:45.303Z,96.02
2022-11-17T15:31:14.932Z,95.50
2022-11-17T15:33:43.784Z,95.79
2022-11-17T15:36:13.745Z,94.77
2022-11-17T15:38:45.356Z,94.30
2022-11-17T15:41:14.523Z,94.12
2022-11-17T15:43:45.806Z,94.12
2022-11-17T15:46:15.411Z,93.68
2022-11-17T15:48:46.449Z,94.01
2022-11-17T15:51:16.214Z,94.71
2022-11-17T15:53:46.440Z,94.96
2022-11-17T15:56:16.742Z,93.97
2022-11-17T15:58:47.285Z,94.70
2022-11-17T16:01:17.247Z,95.29
2022-11-17T16:03:46.508Z,95.23
2022-11-17T16:06:14.628Z,94.86
2022-11-17T16:08:43.118Z,95.17
2022-11-17T16:11:12.081Z,95.40
2022-11-17T16:13:40.401Z,95.45
2022-11-17T16:16:15.404Z,95.29
2022-11-17T16:18:43.654Z,93.45
2022-11-17T16:21:13.953Z,94.46
2022-11-17T16:23:43.184Z,95.65
2022-11-17T16:26:14.690Z,95.10
2022-11-17T16:28:43.644Z,95.06
2022-11-17T16:31:18.513Z,95.00
2022-11-17T16:33:50.514Z,94.68
2022-11-17T16:36:19.328Z,94.70
2022-11-17T16:39:00.416Z,94.64
2022-11-17T16:41:31.958Z,94.17
2022-11-17T16:44:00.543Z,94.49
2022-11-17T16:46:32.334Z,94.69
2022-11-17T16:49:03.286Z,94.71
2022-11-17T16:51:31.554Z,94.87
2022-11-17T16:54:02.108Z,95.31
2022-11-17T16:56:30.569Z,96.51
2022-11-17T16:58:59.824Z,96.71
2022-11-17T17:01:31.978Z,95.55
2022-11-17T17:04:01.747Z,94.84
2022-11-17T17:06:30.523Z,95.18
2022-11-17T17:09:00.254Z,95.59
2022-11-17T17:11:31.483Z,95.36
2022-11-17T17:14:00.338Z,96.01
2022-11-17T17:16:30.774Z,96.08
2022-11-17T17:19:00.441Z,95.60
2022-11-17T17:21:29.599Z,94.95
2022-11-17T17:23:58.547Z,95.74
2022-11-17T17:26:28.561Z,96.20
2022-11-17T17:28:58.280Z,95.86
2022-11-17T17:31:27.778Z,96.20
2022-11-17T17:33:57.642Z,96.60
2022-11-17T17:36:26.413Z,97.33
2022-11-17T17:38:56.449Z,97.70
2022-11-17T17:41:26.372Z,98.00
2022-11-17T17:43:59.108Z,97.38
2022-11-17T17:46:29.752Z,97.34
2022-11-17T17:48:59.859Z,97.53
2022-11-17T17:51:29.724Z,98.18
2022-11-17T17:54:01.109Z,97.92
2022-11-17T17:56:30.595Z,97.84
2022-11-17T17:58:59.249Z,97.52
2022-11-17T18:01:28.942Z,98.02
2022-11-17T18:04:04.463Z,97.44
2022-11-17T18:06:36.375Z,97.02
2022-11-17T18:09:04.913Z,96.62
2022-11-17T18:11:33.942Z,96.74
2022-11-17T18:14:02.344Z,96.40
2022-11-17T18:16:32.605Z,95.92
2022-11-17T18:19:04.059Z,96.56
2022-11-17T18:21:32.601Z,96.03
2022-11-17T18:24:02.140Z,95.55
2022-11-17T18:26:31.782Z,96.25
2022-11-17T18:29:01.585Z,95.59
2022-11-17T18:31:32.381Z,96.06
2022-11-17T18:34:03.714Z,95.68
2022-11-17T18:36:32.489Z,95.69
2022-11-17T18:39:00.770Z,95.46
2022-11-17T18:41:31.067Z,94.93
2022-11-17T18:43:59.539Z,94.64
2022-11-17T18:46:30.454Z,93.87
2022-11-17T18:48:59.346Z,93.69
2022-11-17T18:51:30.808Z,93.07
2022-11-17T18:54:01.492Z,92.90
2022-11-17T18:56:33.405Z,92.97
2022-11-17T18:59:02.213Z,92.71
2022-11-17T19:01:31.889Z,92.27
2022-11-17T19:04:01.596Z,92.01
2022-11-17T19:06:32.952Z,92.23
2022-11-17T19:09:01.884Z,91.61
2022-11-17T19:11:33.077Z,91.63
2022-11-17T19:14:03.242Z,91.35
2022-11-17T19:16:32.098Z,91.15
2022-11-17T19:19:00.875Z,91.08
2022-11-17T19:21:33.901Z,90.55
2022-11-17T19:24:04.515Z,90.69
2022-11-17T19:26:34.440Z,89.86
2022-11-17T19:29:04.754Z,89.04
2022-11-17T19:31:33.833Z,87.77
2022-11-17T19:34:02.061Z,85.93
2022-11-17T19:36:33.486Z,84.41
2022-11-17T19:39:03.503Z,82.43
2022-11-17T19:41:34.563Z,81.55
2022-11-17T19:44:05.253Z,79.98
2022-11-17T19:46:34.338Z,78.90
2022-11-17T19:49:02.745Z,78.53
2022-11-17T19:51:34.099Z,77.98
2022-11-17T19:54:03.705Z,77.87
2022-11-17T19:56:32.081Z,78.26
2022-11-17T19:59:01.533Z,78.39
2022-11-17T20:01:31.100Z,78.87
2022-11-17T20:04:00.619Z,79.64
2022-11-17T20:06:30.686Z,79.60
2022-11-17T20:09:00.459Z,79.48
2022-11-17T20:11:30.056Z,80.18
2022-11-17T20:13:58.443Z,80.76
2022-11-17T20:16:28.429Z,81.76
2022-11-17T20:18:58.654Z,82.13
2022-11-17T20:21:27.787Z,82.61
2022-11-17T20:23:56.186Z,82.90
2022-11-17T20:26:27.705Z,82.41
2022-11-17T20:28:55.919Z,83.44
2022-11-17T20:31:26.057Z,84.92
2022-11-17T20:33:57.658Z,85.51
2022-11-17T20:36:26.050Z,86.45
2022-11-17T20:38:55.438Z,86.93
2022-11-17T20:41:25.477Z,86.95
2022-11-17T20:43:55.053Z,86.61
2022-11-17T20:46:24.108Z,87.00
2022-11-17T20:48:52.651Z,86.94
2022-11-17T20:51:21.896Z,87.65
2022-11-17T20:53:51.384Z,87.37
2022-11-17T20:56:20.404Z,86.88
2022-11-17T20:58:50.136Z,88.04
2022-11-17T21:01:20.689Z,88.13
2022-11-17T21:03:50.120Z,88.84
2022-11-17T21:06:18.912Z,89.01
2022-11-17T21:08:47.737Z,88.61
2022-11-17T21:11:32.025Z,88.30
2022-11-17T21:14:02.195Z,88.35
2022-11-17T21:16:30.545Z,87.20
2022-11-17T21:18:58.940Z,86.68
2022-11-17T21:21:27.128Z,85.38
2022-11-17T21:23:55.800Z,84.28
2022-11-17T21:26:24.699Z,83.93
2022-11-17T21:28:53.374Z,83.62
2022-11-17T21:31:24.656Z,82.75
2022-11-17T21:33:54.461Z,81.95
2022-11-17T21:36:24.148Z,81.78
2022-11-17T21:38:52.538Z,81.28
2022-11-17T21:41:22.992Z,81.39
2022-11-17T21:43:52.878Z,80.89
2022-11-17T21:46:24.037Z,80.63
2022-11-17T21:48:53.142Z,80.67
2022-11-17T21:51:23.053Z,80.46
2022-11-17T21:53:54.272Z,80.68
2022-11-17T21:56:25.704Z,80.19
2022-11-17T21:58:55.866Z,80.35
2022-11-17T22:01:25.940Z,80.01
2022-11-17T22:03:54.417Z,79.39
2022-11-17T22:06:25.664Z,78.95
2022-11-17T22:08:55.374Z,78.87
2022-11-17T22:11:36.858Z,78.90
2022-11-17T22:14:10.779Z,78.78
2022-11-17T22:16:41.456Z,78.17
2022-11-17T22:19:10.382Z,78.11
2022-11-17T22:21:39.646Z,77.41
2022-11-17T22:24:11.912Z,76.63
2022-11-17T22:26:41.402Z,75.26
2022-11-17T22:29:12.704Z,75.64
2022-11-17T22:31:42.695Z,75.79
2022-11-17T22:34:10.914Z,75.12
2022-11-17T22:36:39.048Z,75.33
2022-11-17T22:39:07.760Z,75.42
2022-11-17T22:41:36.227Z,74.97
2022-11-17T22:44:04.378Z,74.74
2022-11-17T22:46:32.437Z,75.28
2022-11-17T22:49:01.937Z,75.22
2022-11-17T22:51:47.553Z,75.59
2022-11-17T22:54:15.650Z,75.58
2022-11-17T22:56:44.019Z,75.48
2022-11-17T22:59:12.184Z,75.19
2022-11-17T23:01:40.214Z,75.12
2022-11-17T23:04:09.760Z,75.61
2022-11-17T23:06:37.802Z,75.97
2022-11-17T23:09:05.886Z,75.99
2022-11-17T23:11:38.332Z,76.16
2022-11-17T23:14:08.011Z,76.49
2022-11-17T23:16:36.850Z,77.42
2022-11-17T23:19:05.630Z,76.98
2022-11-17T23:21:35.072Z,76.97
2022-11-17T23:24:03.732Z,77.25
2022-11-17T23:26:32.844Z,77.30
2022-11-17T23:29:00.941Z,77.06
2022-11-17T23:31:29.005Z,76.60
2022-11-17T23:33:57.079Z,76.11
2022-11-17T23:36:25.135Z,75.60
2022-11-17T23:38:56.967Z,75.66
2022-11-17T23:41:25.195Z,75.32
2022-11-17T23:43:54.340Z,75.35
2022-11-17T23:46:25.824Z,75.65
2022-11-17T23:48:55.204Z,76.33
2022-11-17T23:51:26.054Z,76.35
2022-11-17T23:53:55.518Z,76.33
2022-11-17T23:56:24.132Z,76.91
2022-11-17T23:58:52.951Z,77.07
